• Join FlightAware (Why Join?)
  • Login
  • US Flag 
02:31AM EDT


 

Airport Tracker/Info


-or-


 

Live Flight TrackerFlight Track Log ✈ RPA3392 ✈ 09-May-2013 ✈ KDCA - KALB

Flight Track Log - Related Links

Times and Time Zones

All times are in EDT time to prevent confusion due to time zone crossing. See the RPA3392 flight status page for this flight to view local times or setup timezone preferences in your user account.

Time Position Orientation Groundspeed Altitude Reporting Facility
EDT Latitude Longitude Course Direction KTS MPH feet Rate Location/Type
10:20PM 38.8833 -77.0667 90° East 159 183 1,800  Level Potomac TRACON
10:21PM 38.9333 -77.1167 322° Northwest 210 242 4,600 3,180 Climbing Potomac TRACON
10:22PM 38.9716 -76.6735 57° Northeast  Level FlightAware Approximate
10:22PM 38.9667 -77.1667 311° West 208 239 8,200  Level Potomac TRACON
10:23PM 39.0206 -76.5549 67° East  Level FlightAware Approximate
10:23PM 39.0333 -77.1333 21° North 240 276 9,100  Level Potomac TRACON
10:24PM 39.0665 -76.4338 63° Northeast  Level FlightAware Approximate
10:25PM 39.1167 -76.3155 90° East  Level FlightAware Approximate
10:25PM 39.0928 -77.0089 58° Northeast 266 306 12,200  Level Washington Center
10:26PM 39.1025 -76.8808 84° East 302 348 14,300 2,340 Climbing Washington Center
10:27PM 39.1119 -76.7525 85° East 334 384 16,900 2,400 Climbing Washington Center
10:28PM 39.1194 -76.6217 86° East 352 405 19,100 2,160 Climbing Washington Center
10:29PM 39.1289 -76.4825 85° East 372 428 21,300 1,920 Climbing Washington Center
10:30PM 39.1547 -76.3464 76° East 384 442 23,000 840 Climbing Washington Center
10:31PM 39.1889 -76.2128 72° East 384 442 23,000  Level Washington Center
10:32PM 39.2311 -76.0819 67° East 391 450 23,000  Level Washington Center
10:33PM 39.2922 -75.9644 56° Northeast 391 450 23,000 360 Level Washington Center
10:34PM 39.3550 -75.8439 56° Northeast 393 452 23,800 960 Climbing Washington Center
10:35PM 39.4156 -75.7233 57° Northeast 398 458 25,000 960 Climbing Washington Center
10:36PM 39.4803 -75.6022 55° Northeast 398 458 25,800 960 Climbing Washington Center
10:37PM 39.5447 -75.4811 55° Northeast 398 458 27,000 1,080 Climbing Washington Center
10:39PM 39.6672 -75.2667 53° Northeast 405 466 28,900 660 Climbing New York Center
10:40PM 39.7381 -75.1578 50° Northeast 398 458 29,000  Climbing New York Center
10:41PM 39.8106 -75.0542 48° Northeast 398 458 29,000  Level New York Center
10:42PM 39.8853 -74.9506 47° Northeast 392 451 29,000  Level New York Center
10:43PM 39.9578 -74.8464 48° Northeast 398 458 29,000  Level New York Center
10:44PM 40.0422 -74.7483 42° Northeast 398 458 29,000  Level New York Center
10:45PM 40.1206 -74.6525 43° Northeast 393 452 29,000  Level New York Center
10:46PM 40.2050 -74.5594 40° Northeast 388 447 29,000  Level New York Center
10:47PM 40.2894 -74.4525 44° Northeast 383 441 29,000  Level New York Center
10:49PM 40.4494 -74.2700 41° Northeast 383 441 29,000 -240 Level New York Center
10:50PM 40.5292 -74.1731 43° Northeast 383 441 28,400 -960 Descending New York Center
10:52PM 40.6956 -73.9758 42° Northeast 373 429 26,000 -1,380 Descending Boston Center
10:53PM 40.7717 -73.8897 41° Northeast 367 422 24,100 -1,020 Descending Boston Center
10:54PM 40.8458 -73.8008 42° Northeast 362 417 24,000 -300 Descending Boston Center
10:55PM 40.9156 -73.7117 44° Northeast 356 410 23,500 -540 Descending Boston Center
10:56PM 40.9811 -73.6389 40° Northeast 346 398 23,000 -300 Descending Boston Center
10:57PM 41.0894 -73.6436 358° North 321 369 23,000 -540 Level Boston Center
10:58PM 41.1767 -73.6561 354° North 321 369 22,000 -1,500 Descending Boston Center
10:59PM 41.2683 -73.6664 355° North 321 369 20,000 -1,080 Descending Boston Center
11:00PM 41.3619 -73.6708 358° North 331 381 19,900 -1,080 Descending Boston Center
11:01PM 41.4494 -73.6781 356° North 331 381 17,900 -1,980 Descending Boston Center
11:02PM 41.5286 -73.6850 356° North 324 373 16,000 -1,920 Descending Boston Center
11:03PM 41.6222 -73.6953 355° North 309 356 13,700 -2,160 Descending Boston Center
11:04PM 41.7244 -73.7056 356° North 303 349 11,300 -1,380 Descending Boston Center
11:05PM 41.8014 -73.7156 354° North 290 334 11,000 -180 Descending Boston Center
11:06PM 41.8783 -73.7200 358° North 280 322 11,000  Level Boston Center
11:07PM 41.9492 -73.7297 354° North 278 320 11,000  Level Boston Center
11:08PM 42.0094 -73.7308 359° North 280 322 11,000  Level Boston Center
11:08PM 42.0344 -73.7342 354° North 275 316 11,000  Level Boston Center
11:09PM 42.0886 -73.7439 352° North 283 326 11,000  Level Boston Center
11:09PM 42.1117 -73.7414 North 275 316 11,000  Level Boston Center
11:10PM 42.1553 -73.7481 354° North 283 326 11,000  Level Boston Center
11:10PM 42.1822 -73.7486 359° North 275 316 11,000 -720 Level Boston Center
11:11PM 42.2364 -73.7581 353° North 277 319 10,300 -840 Descending Boston Center
11:11PM 42.2614 -73.7558 North 270 311 10,200 -840 Descending Boston Center
11:12PM 42.3008 -73.7650 350° North 226 260 9,500 -1,020 Descending Boston Center
11:12PM 42.3178 -73.7625 North 237 273 9,200 -1,200 Descending Boston Center
11:13PM 42.3592 -73.7692 353° North 193 222 8,300 -1,620 Descending Boston Center
11:13PM 42.3781 -73.7694 359° North 207 238 7,600 -1,920 Descending Boston Center
11:14PM 42.4114 -73.7758 352° North 192 221 6,400 -1,800 Descending Boston Center
11:14PM 42.4281 -73.7761 359° North 195 224 5,800 -1,920 Descending Boston Center
11:15PM 42.4653 -73.7825 353° North 192 221 4,500 -1,800 Descending Boston Center
11:15PM 42.4864 -73.7831 359° North 195 224 3,700 -1,500 Descending Boston Center
11:16PM 42.5175 -73.7867 355° North 191 220 3,000 -720 Descending Boston Center
11:16PM 42.5486 -73.7900 355° North 195 224 3,000  Level Boston Center
11:17PM 42.5694 -73.7933 353° North 182 209 3,000  Level Boston Center
11:17PM 42.5944 -73.7939 359° North 179 206 3,000 -240 Level Boston Center
11:18PM 42.6089 -73.7997 343° North 163 188 2,800 -900 Descending Boston Center
11:18PM 42.6319 -73.8003 359° North 174 200 2,100 -900 Descending Boston Center
11:19PM 42.6547 -73.8036 354° North 162 186 1,900 -600 Descending Boston Center